Time;durP1;ratioP1;P1;durP2;ratioP2;P2;SDS_P1;SDS_P2;PMS_P1;PMS_P2;Temp;Humidity;BMP_temperature;BMP_pressure;BME280_temperature;BME280_humidity;BME280_pressure;Samples;Min_cycle;Max_cycle;Signal;HPM_P1;HPM_P2
2022/09/27 00:01:59;;;;;;;2.45;2.25;;;10.40;99.90;;;;;;5062753;28;20013;-50
2022/09/27 00:04:25;;;;;;;3.47;2.42;;;10.40;99.90;;;;;;5044973;28;20684;-49
2022/09/27 00:06:51;;;;;;;2.80;2.30;;;10.40;99.90;;;;;;5061089;28;20024;-50
2022/09/27 00:09:16;;;;;;;3.78;2.17;;;10.40;99.90;;;;;;5063035;28;20024;-55
2022/09/27 00:11:42;;;;;;;4.53;2.72;;;10.30;99.90;;;;;;5062892;28;20435;-53
2022/09/27 00:14:16;;;;;;;2.42;2.17;;;10.40;99.90;;;;;;5061136;28;20113;-51
2022/09/27 00:16:43;;;;;;;3.92;1.90;;;10.30;99.90;;;;;;5059349;28;20093;-53
2022/09/27 00:19:17;;;;;;;2.33;2.10;;;10.40;99.90;;;;;;5060151;28;20082;-54
2022/09/27 00:21:44;;;;;;;3.75;2.08;;;10.30;99.90;;;;;;5062880;28;20106;-50
2022/09/27 00:24:14;;;;;;;4.50;2.28;;;10.30;99.90;;;;;;5060942;28;20052;-50
2022/09/27 00:26:40;;;;;;;2.22;2.03;;;10.30;99.90;;;;;;5063007;28;20062;-49
2022/09/27 00:29:06;;;;;;;2.80;2.47;;;10.30;99.90;;;;;;5027172;28;20025;-55
2022/09/27 00:31:32;;;;;;;2.63;2.10;;;10.40;99.90;;;;;;5062490;28;20340;-50
2022/09/27 00:34:01;;;;;;;5.90;2.50;;;10.30;99.90;;;;;;5061098;28;20521;-49
2022/09/27 00:36:28;;;;;;;3.00;2.65;;;10.30;99.90;;;;;;5038190;28;20029;-49
2022/09/27 00:38:54;;;;;;;5.68;2.60;;;10.30;99.90;;;;;;5043810;28;20028;-49
2022/09/27 00:41:26;;;;;;;2.38;2.00;;;10.30;99.90;;;;;;5056856;28;20162;-49
2022/09/27 00:43:55;;;;;;;2.30;1.92;;;10.30;99.90;;;;;;5066727;28;20024;-50
2022/09/27 00:46:45;;;;;;;3.08;2.10;;;10.40;99.90;;;;;;5058863;28;20044;-49
2022/09/27 00:49:26;;;;;;;4.80;3.05;;;10.40;99.90;;;;;;5061808;28;20023;-49
2022/09/27 00:52:01;;;;;;;3.65;2.60;;;10.40;99.90;;;;;;5042104;28;20029;-49
2022/09/27 00:54:30;;;;;;;1.90;1.80;;;10.40;99.90;;;;;;5056900;28;20511;-49
2022/09/27 00:56:56;;;;;;;2.35;2.15;;;10.40;99.90;;;;;;5059495;28;20021;-52
2022/09/27 00:59:27;;;;;;;3.13;2.22;;;10.30;99.90;;;;;;5060389;28;20024;-49
2022/09/27 01:01:54;;;;;;;2.20;2.00;;;10.40;99.90;;;;;;5058876;28;20028;-53
2022/09/27 01:04:23;;;;;;;2.80;2.55;;;10.40;99.90;;;;;;5042497;28;20036;-50
2022/09/27 01:06:49;;;;;;;2.63;2.20;;;10.40;99.90;;;;;;5059845;28;20032;-50
2022/09/27 01:09:15;;;;;;;2.95;2.67;;;10.30;99.90;;;;;;5049970;28;20028;-51
2022/09/27 01:11:53;;;;;;;2.65;2.35;;;10.40;99.90;;;;;;5061562;28;20483;-52
2022/09/27 01:14:51;;;;;;;5.20;2.78;;;10.40;99.90;;;;;;5061607;28;20023;-50
2022/09/27 01:17:38;;;;;;;2.92;2.38;;;10.40;99.90;;;;;;5056333;28;20021;-52
2022/09/27 01:20:32;;;;;;;5.72;2.80;;;10.40;99.90;;;;;;5064338;28;20045;-51
2022/09/27 01:23:17;;;;;;;3.33;2.40;;;10.40;99.90;;;;;;5057104;28;20021;-48
2022/09/27 01:26:04;;;;;;;3.00;2.63;;;10.40;99.90;;;;;;5065443;22;20045;-50
2022/09/27 01:28:38;;;;;;;3.75;2.67;;;10.40;99.90;;;;;;5051670;28;20099;-52
2022/09/27 01:31:25;;;;;;;3.30;3.00;;;10.40;99.90;;;;;;5060971;28;20017;-50
2022/09/27 01:34:12;;;;;;;2.67;2.20;;;10.40;99.90;;;;;;5061510;28;20020;-53
2022/09/27 01:37:10;;;;;;;5.20;3.05;;;10.40;99.90;;;;;;5063104;28;20056;-51
2022/09/27 01:40:00;;;;;;;3.80;2.85;;;10.40;99.90;;;;;;5047527;28;20108;-50
2022/09/27 01:42:55;;;;;;;3.63;3.20;;;10.40;99.90;;;;;;5035844;28;20063;-50
2022/09/27 01:45:30;;;;;;;3.15;2.83;;;10.40;99.90;;;;;;5051993;28;20017;-51
2022/09/27 01:48:03;;;;;;;3.97;3.28;;;10.40;99.90;;;;;;5056928;28;20434;-51
2022/09/27 01:50:38;;;;;;;3.42;3.00;;;10.40;99.90;;;;;;5061956;28;20076;-51
2022/09/27 01:53:22;;;;;;;4.15;2.70;;;10.40;99.90;;;;;;5058684;28;20032;-51
2022/09/27 01:55:52;;;;;;;3.92;3.03;;;10.40;99.90;;;;;;5060255;28;20021;-51
2022/09/27 01:58:31;;;;;;;2.90;2.70;;;10.40;99.90;;;;;;5050502;28;20024;-54
2022/09/27 02:00:58;;;;;;;4.03;3.65;;;10.40;99.90;;;;;;5060647;28;20028;-50
2022/09/27 02:03:34;;;;;;;3.83;3.08;;;10.30;99.90;;;;;;5061205;28;20020;-52
2022/09/27 02:06:11;;;;;;;2.60;2.38;;;10.30;99.90;;;;;;5058985;28;20653;-58
2022/09/27 02:08:42;;;;;;;3.03;2.50;;;10.30;99.90;;;;;;5062578;28;20034;-51
2022/09/27 02:11:11;;;;;;;3.03;2.55;;;10.30;99.90;;;;;;5058635;28;20124;-56
2022/09/27 02:13:45;;;;;;;3.03;2.72;;;10.30;99.90;;;;;;5063120;28;20031;-51
2022/09/27 02:16:31;;;;;;;5.93;3.00;;;10.30;99.90;;;;;;5058370;28;20095;-51
2022/09/27 02:19:53;;;;;;;3.53;2.95;;;10.30;99.90;;;;;;5065722;28;20020;-54
2022/09/27 02:22:40;;;;;;;3.85;2.47;;;10.30;99.90;;;;;;4968379;28;20019;-55
2022/09/27 02:25:17;;;;;;;7.72;3.35;;;10.30;99.90;;;;;;4967821;28;20551;-52
2022/09/27 02:27:51;;;;;;;3.83;2.50;;;10.40;99.90;;;;;;5044681;28;20041;-55
2022/09/27 02:30:17;;;;;;;3.30;3.00;;;10.30;99.90;;;;;;5059267;28;20111;-55
2022/09/27 02:32:43;;;;;;;3.20;2.90;;;10.30;99.90;;;;;;5061391;28;20566;-51
2022/09/27 02:35:28;;;;;;;3.88;3.00;;;10.30;99.90;;;;;;5060356;28;20027;-52
2022/09/27 02:37:55;;;;;;;2.92;2.67;;;10.30;99.90;;;;;;5060391;28;20032;-52
2022/09/27 02:40:21;;;;;;;3.58;3.13;;;10.30;99.90;;;;;;5057605;28;20017;-52
2022/09/27 02:42:47;;;;;;;3.30;3.00;;;10.30;99.90;;;;;;5062640;28;20070;-54
2022/09/27 02:45:14;;;;;;;3.13;2.88;;;10.30;99.90;;;;;;5065852;28;20723;-51
2022/09/27 02:48:03;;;;;;;3.85;3.08;;;10.30;99.90;;;;;;5060087;28;20025;-52
2022/09/27 02:50:38;;;;;;;3.17;2.72;;;10.30;99.90;;;;;;5006426;28;20029;-54
2022/09/27 02:53:12;;;;;;;6.03;3.53;;;10.30;99.90;;;;;;5058973;28;20502;-53
2022/09/27 02:56:09;;;;;;;3.88;3.08;;;10.30;99.90;;;;;;5051251;28;20032;-56
2022/09/27 02:58:38;;;;;;;3.90;3.13;;;10.30;99.90;;;;;;5059350;28;20032;-51
2022/09/27 03:01:16;;;;;;;4.43;2.90;;;10.30;99.90;;;;;;5058735;28;20553;-54
2022/09/27 03:04:14;;;;;;;4.82;2.97;;;10.30;99.90;;;;;;5049038;28;20029;-54
2022/09/27 03:06:44;;;;;;;3.10;2.78;;;10.30;99.90;;;;;;5047444;28;20087;-51
2022/09/27 03:09:17;;;;;;;4.43;3.63;;;10.30;99.90;;;;;;5068499;28;20402;-51
2022/09/27 03:11:43;;;;;;;6.38;3.67;;;10.30;99.90;;;;;;5064722;28;20047;-53
2022/09/27 03:14:09;;;;;;;4.10;3.03;;;10.30;99.90;;;;;;5066784;28;20032;-52
2022/09/27 03:16:35;;;;;;;8.07;3.67;;;10.20;99.90;;;;;;5063881;28;20132;-53
2022/09/27 03:19:00;;;;;;;2.78;2.53;;;10.30;99.90;;;;;;5051386;28;20382;-52
2022/09/27 03:21:26;;;;;;;3.85;3.55;;;10.30;99.90;;;;;;5048963;28;20096;-53
2022/09/27 03:23:52;;;;;;;3.30;3.00;;;10.30;99.90;;;;;;5066855;28;20104;-52
2022/09/27 03:26:17;;;;;;;3.28;2.80;;;10.30;99.90;;;;;;5071579;28;20041;-54
2022/09/27 03:28:43;;;;;;;2.65;2.45;;;10.30;99.90;;;;;;5067966;28;20081;-52
2022/09/27 03:31:09;;;;;;;4.03;3.55;;;10.30;99.90;;;;;;5069684;28;20592;-52
2022/09/27 03:33:34;;;;;;;3.85;2.85;;;10.30;99.90;;;;;;5066797;28;20104;-55
2022/09/27 03:36:00;;;;;;;3.50;3.10;;;10.30;99.90;;;;;;5068066;28;20025;-51
2022/09/27 03:38:26;;;;;;;5.55;3.08;;;10.30;99.90;;;;;;5054504;28;20474;-51
2022/09/27 03:40:51;;;;;;;4.18;3.53;;;10.30;99.90;;;;;;5067797;28;20058;-52
2022/09/27 03:43:17;;;;;;;3.00;2.60;;;10.30;99.90;;;;;;5070865;28;20024;-55
2022/09/27 03:45:44;;;;;;;3.70;3.40;;;10.30;99.90;;;;;;5067210;28;20055;-54
2022/09/27 03:48:10;;;;;;;4.53;3.40;;;10.30;99.90;;;;;;5069592;28;20032;-51
2022/09/27 03:50:35;;;;;;;4.53;4.13;;;10.20;99.90;;;;;;5048417;28;20013;-51
2022/09/27 03:53:01;;;;;;;3.75;3.45;;;10.30;99.90;;;;;;5055179;28;20052;-54
2022/09/27 03:55:27;;;;;;;4.30;3.17;;;10.20;99.90;;;;;;5059013;28;20031;-52
2022/09/27 03:57:52;;;;;;;4.30;3.28;;;10.20;99.90;;;;;;5066236;28;20033;-51
2022/09/27 04:00:18;;;;;;;3.90;3.50;;;10.20;99.90;;;;;;5069774;28;20020;-51
2022/09/27 04:02:44;;;;;;;3.10;2.90;;;10.30;99.90;;;;;;5072058;28;20486;-51
2022/09/27 04:05:10;;;;;;;8.40;3.63;;;10.20;99.90;;;;;;5067014;28;20079;-52
2022/09/27 04:07:36;;;;;;;4.20;3.80;;;10.20;99.90;;;;;;5071674;28;20103;-53
2022/09/27 04:10:03;;;;;;;3.60;3.30;;;10.30;99.90;;;;;;5065632;28;20126;-54
2022/09/27 04:12:28;;;;;;;3.30;3.00;;;10.30;99.90;;;;;;5058949;28;20032;-51
2022/09/27 04:14:54;;;;;;;4.65;3.63;;;10.20;99.90;;;;;;5065605;28;20024;-51
2022/09/27 04:17:20;;;;;;;3.88;3.47;;;10.30;99.90;;;;;;5069587;28;20020;-51
2022/09/27 04:19:45;;;;;;;4.63;3.70;;;10.30;99.90;;;;;;5053754;28;20023;-51
2022/09/27 04:22:12;;;;;;;4.30;3.90;;;10.30;99.90;;;;;;5066501;28;20573;-51
2022/09/27 04:24:38;;;;;;;4.03;3.30;;;10.20;99.90;;;;;;5071274;28;20119;-51
2022/09/27 04:27:04;;;;;;;2.78;2.58;;;10.20;99.90;;;;;;5046951;28;20712;-52
2022/09/27 04:29:30;;;;;;;2.70;2.50;;;10.20;99.90;;;;;;5071016;28;20112;-51
2022/09/27 04:31:56;;;;;;;4.40;3.78;;;10.20;99.90;;;;;;5065294;28;20044;-54
2022/09/27 04:36:25;;;;;;;3.70;2.80;;;10.20;99.90;;;;;;5069363;28;20067;-51
2022/09/27 04:37:08;;;;;;;3.08;2.85;;;10.20;99.90;;;;;;5068260;28;20577;-51
2022/09/27 04:39:35;;;;;;;3.25;2.95;;;10.20;99.90;;;;;;5069011;28;20548;-51
2022/09/27 04:42:01;;;;;;;3.30;3.00;;;10.20;99.90;;;;;;5069008;28;20099;-52
2022/09/27 04:44:27;;;;;;;4.13;3.00;;;10.30;99.90;;;;;;5066489;28;20108;-52
2022/09/27 04:46:53;;;;;;;2.78;2.58;;;10.30;99.90;;;;;;5070496;28;20166;-53
2022/09/27 04:49:18;;;;;;;3.80;2.97;;;10.30;99.90;;;;;;5063563;28;20021;-51
2022/09/27 04:51:44;;;;;;;3.03;2.83;;;10.20;99.90;;;;;;5062903;28;20052;-51
2022/09/27 04:54:09;;;;;;;3.75;3.20;;;10.20;99.90;;;;;;5061857;28;20027;-51
2022/09/27 04:56:35;;;;;;;3.88;3.55;;;10.30;99.90;;;;;;5065560;28;20036;-54
2022/09/27 04:59:01;;;;;;;3.20;2.90;;;10.20;99.90;;;;;;5068223;28;20028;-51
2022/09/27 05:01:26;;;;;;;3.92;3.63;;;10.20;99.90;;;;;;5070327;28;20013;-50
2022/09/27 05:03:52;;;;;;;3.50;3.20;;;10.30;99.90;;;;;;5067214;28;20020;-51
2022/09/27 05:06:18;;;;;;;2.92;2.70;;;10.30;99.90;;;;;;5069253;28;20094;-53
2022/09/27 05:08:44;;;;;;;3.47;3.17;;;10.30;99.90;;;;;;5066495;28;20062;-53
2022/09/27 05:11:10;;;;;;;4.82;3.78;;;10.20;99.90;;;;;;5068983;28;20028;-55
2022/09/27 05:13:35;;;;;;;3.47;3.17;;;10.30;99.90;;;;;;5065457;28;20021;-54
2022/09/27 05:16:03;;;;;;;3.20;2.90;;;10.20;99.90;;;;;;5067555;28;20410;-51
2022/09/27 05:18:28;;;;;;;4.53;3.30;;;10.30;99.90;;;;;;5070153;28;20360;-51
2022/09/27 05:20:55;;;;;;;4.53;3.10;;;10.30;99.90;;;;;;5066679;28;20019;-53
2022/09/27 05:23:21;;;;;;;2.75;2.55;;;10.30;99.90;;;;;;5068936;28;20012;-51
2022/09/27 05:25:47;;;;;;;4.25;3.40;;;10.30;99.90;;;;;;5065426;28;20455;-52
2022/09/27 05:28:12;;;;;;;5.90;3.70;;;10.30;99.90;;;;;;5068467;28;20483;-52
2022/09/27 05:30:38;;;;;;;4.43;4.03;;;10.20;99.90;;;;;;5064802;28;20028;-56
2022/09/27 05:33:03;;;;;;;4.85;3.88;;;10.20;99.90;;;;;;5067415;28;20024;-52
2022/09/27 05:35:30;;;;;;;4.32;3.92;;;10.30;99.90;;;;;;5069779;28;20039;-51
2022/09/27 05:37:58;;;;;;;3.50;3.20;;;10.20;99.90;;;;;;5048243;28;20032;-52
2022/09/27 05:40:24;;;;;;;3.88;3.58;;;10.30;99.90;;;;;;5068895;28;20380;-56
2022/09/27 05:42:51;;;;;;;6.38;3.80;;;10.30;99.90;;;;;;5065535;28;20025;-51
2022/09/27 05:45:17;;;;;;;4.55;4.05;;;10.30;99.90;;;;;;5050322;28;20021;-55
2022/09/27 05:47:50;;;;;;;4.20;3.70;;;10.30;99.90;;;;;;5064357;28;20029;-51
2022/09/27 05:50:16;;;;;;;4.85;4.45;;;10.30;99.90;;;;;;5054083;28;20017;-51
2022/09/27 05:52:42;;;;;;;5.70;5.13;;;10.30;99.90;;;;;;5054043;28;20024;-50
2022/09/27 05:55:08;;;;;;;5.57;4.97;;;10.30;99.90;;;;;;5068872;28;20025;-52
2022/09/27 05:57:34;;;;;;;5.50;4.50;;;10.30;99.90;;;;;;5064842;28;20379;-51
2022/09/27 05:59:59;;;;;;;4.47;4.07;;;10.30;99.90;;;;;;5066861;28;20028;-53
2022/09/27 06:02:25;;;;;;;6.03;4.88;;;10.30;99.90;;;;;;5051642;28;20032;-55
2022/09/27 06:04:51;;;;;;;5.97;4.95;;;10.30;99.90;;;;;;5047938;28;20028;-51
2022/09/27 06:07:17;;;;;;;5.05;4.65;;;10.30;99.90;;;;;;5068869;28;20071;-51
2022/09/27 06:09:43;;;;;;;5.43;4.93;;;10.40;99.90;;;;;;5069890;28;20044;-52
2022/09/27 06:12:10;;;;;;;5.72;5.05;;;10.40;99.90;;;;;;5069219;28;20540;-51
2022/09/27 06:14:37;;;;;;;5.28;4.78;;;10.30;99.90;;;;;;5064486;28;20082;-53
2022/09/27 06:17:03;;;;;;;7.82;5.60;;;10.40;99.90;;;;;;5066742;28;20042;-52
2022/09/27 06:19:29;;;;;;;11.68;5.95;;;10.40;99.90;;;;;;5069662;28;20012;-51
2022/09/27 06:21:54;;;;;;;5.28;4.78;;;10.40;99.90;;;;;;5065062;28;20039;-51
2022/09/27 06:24:20;;;;;;;5.80;5.25;;;10.40;99.90;;;;;;5069028;28;20095;-54
2022/09/27 06:26:46;;;;;;;6.07;5.47;;;10.40;99.90;;;;;;5065053;28;20459;-54
2022/09/27 06:29:11;;;;;;;7.43;5.32;;;10.40;99.90;;;;;;5067283;28;20021;-55
2022/09/27 06:31:37;;;;;;;10.00;6.75;;;10.40;99.90;;;;;;5063650;28;20037;-52
2022/09/27 06:34:03;;;;;;;9.15;6.97;;;10.40;99.90;;;;;;5066122;28;20055;-55
2022/09/27 06:36:28;;;;;;;7.38;5.95;;;10.50;99.90;;;;;;5069537;28;20382;-53
2022/09/27 06:38:54;;;;;;;8.23;5.97;;;10.50;99.90;;;;;;5065201;28;20031;-52
2022/09/27 06:41:20;;;;;;;7.45;5.75;;;10.50;99.90;;;;;;5068730;28;20222;-52
2022/09/27 06:43:48;;;;;;;7.82;6.55;;;10.50;99.90;;;;;;5065051;28;20024;-51
2022/09/27 06:46:14;;;;;;;7.78;6.07;;;10.50;99.90;;;;;;5067044;28;20027;-51
2022/09/27 06:48:40;;;;;;;7.75;6.22;;;10.60;99.90;;;;;;5063757;28;20701;-51
2022/09/27 06:51:06;;;;;;;7.32;6.15;;;10.60;99.90;;;;;;5063813;28;20124;-53
2022/09/27 06:53:32;;;;;;;7.75;5.95;;;10.60;99.90;;;;;;5055082;28;20075;-51
2022/09/27 06:55:59;;;;;;;6.20;5.38;;;10.60;99.90;;;;;;5067946;28;20482;-53
2022/09/27 07:01:11;;;;;;;8.23;5.60;;;10.60;99.90;;;;;;5073011;28;20036;-56
2022/09/27 07:03:40;;;;;;;8.43;4.90;;;10.60;99.90;;;;;;5069611;28;20036;-51
2022/09/27 07:06:11;;;;;;;7.45;4.80;;;10.60;99.90;;;;;;5071045;28;20033;-52
2022/09/27 07:08:37;;;;;;;6.80;5.00;;;10.60;99.90;;;;;;5068767;28;20029;-51
2022/09/27 07:11:06;;;;;;;5.82;3.95;;;10.60;99.90;;;;;;5071208;28;20059;-51
2022/09/27 07:13:33;;;;;;;6.07;4.07;;;10.60;99.90;;;;;;5049563;28;20020;-54
2022/09/27 07:16:00;;;;;;;5.03;3.17;;;10.70;99.90;;;;;;5069925;28;20046;-51
2022/09/27 07:18:26;;;;;;;6.97;3.67;;;10.60;99.90;;;;;;5072778;28;20024;-53
2022/09/27 07:20:52;;;;;;;5.47;3.33;;;10.60;99.90;;;;;;5069190;28;20023;-53
2022/09/27 07:23:19;;;;;;;4.15;3.17;;;10.70;99.90;;;;;;5071573;28;20395;-53
2022/09/27 07:25:45;;;;;;;3.28;2.70;;;10.70;99.90;;;;;;5068348;28;20017;-51
2022/09/27 07:28:16;;;;;;;5.40;3.17;;;10.70;99.90;;;;;;5088509;22;20036;-45
2022/09/27 07:30:42;;;;;;;3.67;2.58;;;10.70;99.90;;;;;;5063262;28;20017;-44
2022/09/27 07:33:08;;;;;;;4.35;2.28;;;10.70;99.90;;;;;;5043727;28;20079;-48
2022/09/27 07:35:38;;;;;;;3.33;2.08;;;10.60;99.90;;;;;;5063582;28;20075;-45
2022/09/27 07:38:07;;;;;;;3.65;2.65;;;10.70;99.90;;;;;;5062742;28;20115;-45
2022/09/27 07:40:35;;;;;;;4.93;2.00;;;10.70;99.90;;;;;;5063896;28;20021;-43
2022/09/27 07:43:01;;;;;;;4.88;2.60;;;10.70;99.90;;;;;;5061939;28;20009;-43
2022/09/27 07:45:27;;;;;;;2.92;2.10;;;10.80;99.90;;;;;;5064072;28;20100;-43
2022/09/27 07:47:53;;;;;;;4.18;2.53;;;10.80;99.90;;;;;;5063284;28;20064;-43
2022/09/27 07:50:19;;;;;;;4.95;2.08;;;10.80;99.90;;;;;;5063726;28;20030;-42
2022/09/27 07:52:47;;;;;;;6.45;2.40;;;10.80;99.90;;;;;;5063679;28;20411;-47
2022/09/27 07:55:14;;;;;;;2.42;2.05;;;10.80;99.90;;;;;;5062781;28;20082;-45
2022/09/27 07:57:40;;;;;;;2.75;1.98;;;10.80;99.90;;;;;;5063712;28;20099;-46
2022/09/27 08:00:11;;;;;;;3.85;1.85;;;10.80;99.90;;;;;;5061150;28;20016;-44
2022/09/27 08:02:37;;;;;;;3.70;1.83;;;10.80;99.90;;;;;;5064859;28;20107;-43
2022/09/27 08:05:03;;;;;;;5.25;2.08;;;10.80;99.90;;;;;;5061565;28;20100;-44
2022/09/27 08:07:29;;;;;;;2.42;1.30;;;10.80;99.90;;;;;;5063581;28;20414;-43
2022/09/27 08:09:55;;;;;;;4.25;1.35;;;10.80;99.90;;;;;;5062268;28;20043;-43
2022/09/27 08:12:21;;;;;;;3.63;1.45;;;10.80;99.90;;;;;;5063454;28;20482;-43
2022/09/27 08:14:48;;;;;;;3.60;1.02;;;10.90;99.90;;;;;;5063450;28;20481;-43
2022/09/27 08:17:13;;;;;;;2.78;1.20;;;10.90;99.90;;;;;;5059722;28;20025;-44
2022/09/27 08:19:40;;;;;;;2.72;1.20;;;10.90;99.90;;;;;;5064502;28;20035;-44
2022/09/27 08:22:08;;;;;;;1.80;0.82;;;10.90;99.90;;;;;;5060394;28;20094;-43
2022/09/27 08:24:34;;;;;;;4.05;1.25;;;10.90;99.90;;;;;;5065066;28;20067;-46
2022/09/27 08:27:01;;;;;;;1.95;0.80;;;10.90;99.90;;;;;;5061724;28;20048;-44
2022/09/27 08:29:26;;;;;;;3.85;0.80;;;10.90;99.90;;;;;;5045684;28;20090;-44
2022/09/27 08:31:53;;;;;;;3.30;1.33;;;10.90;99.90;;;;;;5062693;28;20029;-44
2022/09/27 08:34:20;;;;;;;1.80;1.00;;;10.90;99.90;;;;;;5059361;28;20083;-44
2022/09/27 08:36:46;;;;;;;2.03;1.20;;;11.00;99.90;;;;;;5065273;28;20443;-45
2022/09/27 08:39:11;;;;;;;2.47;1.35;;;11.00;99.90;;;;;;5059596;28;20099;-44
2022/09/27 08:41:42;;;;;;;1.90;1.55;;;11.00;99.90;;;;;;5064300;28;20025;-44
2022/09/27 08:44:26;;;;;;;1.27;1.17;;;11.00;99.90;;;;;;5060319;28;20116;-44
2022/09/27 08:47:06;;;;;;;2.25;1.17;;;11.10;99.90;;;;;;5067485;28;20442;-45
2022/09/27 08:49:48;;;;;;;0.98;0.90;;;11.20;99.90;;;;;;5058858;28;20024;-44
2022/09/27 08:52:26;;;;;;;2.90;1.23;;;11.20;99.90;;;;;;5050268;28;20025;-44
2022/09/27 08:54:54;;;;;;;2.95;1.13;;;11.30;99.90;;;;;;5061693;28;20064;-44
2022/09/27 08:57:23;;;;;;;2.08;0.93;;;11.20;99.90;;;;;;5062395;28;20471;-44
2022/09/27 08:59:56;;;;;;;1.10;0.70;;;11.20;99.90;;;;;;5062822;28;20115;-46
2022/09/27 09:02:24;;;;;;;0.80;0.77;;;11.30;99.90;;;;;;5053818;28;20458;-46
2022/09/27 09:04:54;;;;;;;2.47;1.10;;;11.20;99.90;;;;;;5062281;28;20051;-44
2022/09/27 09:07:53;;;;;;;1.52;1.02;;;11.20;99.90;;;;;;5061479;28;20126;-44
2022/09/27 09:13:53;;;;;;;0.98;0.80;;;11.30;99.90;;;;;;5051401;28;20387;-44
2022/09/27 09:16:38;;;;;;;1.95;0.90;;;11.20;99.90;;;;;;5026126;28;20035;-44
2022/09/27 09:19:22;;;;;;;1.80;1.05;;;11.30;99.90;;;;;;5059898;28;20044;-44
2022/09/27 09:22:27;;;;;;;2.58;1.02;;;11.20;99.90;;;;;;5061393;28;20021;-45
2022/09/27 09:25:10;;;;;;;2.33;1.30;;;11.30;99.90;;;;;;5040395;28;20033;-47
2022/09/27 09:28:08;;;;;;;3.22;1.15;;;11.30;99.90;;;;;;5058021;28;20040;-44
2022/09/27 09:30:58;;;;;;;3.63;0.90;;;11.30;99.90;;;;;;5053047;28;20028;-44
2022/09/27 09:33:48;;;;;;;1.92;0.77;;;11.30;99.90;;;;;;5050641;28;20031;-44
2022/09/27 09:36:43;;;;;;;3.22;1.40;;;11.30;99.90;;;;;;5059632;28;20021;-45
2022/09/27 09:39:22;;;;;;;2.92;1.20;;;11.40;99.90;;;;;;5027217;28;20056;-44
2022/09/27 09:42:06;;;;;;;2.38;1.00;;;11.50;99.90;;;;;;5064719;28;20054;-47
2022/09/27 09:45:00;;;;;;;0.93;0.65;;;11.50;99.90;;;;;;5057053;28;20032;-47
2022/09/27 09:47:35;;;;;;;2.88;0.82;;;11.50;99.90;;;;;;5052233;28;20387;-44
2022/09/27 09:50:12;;;;;;;1.90;0.90;;;11.40;99.90;;;;;;5058183;28;20017;-44
2022/09/27 09:52:58;;;;;;;0.63;0.63;;;11.30;99.90;;;;;;5061515;28;20447;-46
2022/09/27 09:55:30;;;;;;;0.98;0.98;;;11.30;99.90;;;;;;5061622;28;20078;-47
2022/09/27 09:58:04;;;;;;;1.15;1.05;;;11.30;99.90;;;;;;5060426;28;20031;-44
2022/09/27 10:00:30;;;;;;;0.63;0.63;;;11.20;99.90;;;;;;5057785;28;20110;-43
2022/09/27 10:02:59;;;;;;;2.35;1.10;;;11.20;99.90;;;;;;5063885;28;20315;-43
2022/09/27 10:05:26;;;;;;;2.30;1.13;;;11.20;99.90;;;;;;5039770;28;20029;-44
2022/09/27 10:07:57;;;;;;;1.55;1.23;;;11.20;99.90;;;;;;5064389;28;20487;-43
2022/09/27 10:10:23;;;;;;;1.67;0.82;;;11.20;99.90;;;;;;5057755;28;20441;-43
2022/09/27 10:12:49;;;;;;;1.90;1.05;;;11.10;99.90;;;;;;5065319;28;20024;-45
2022/09/27 10:15:18;;;;;;;1.17;1.08;;;11.10;99.90;;;;;;5057601;28;20029;-44
2022/09/27 10:17:50;;;;;;;1.05;1.00;;;11.00;99.90;;;;;;5040208;28;20023;-46
2022/09/27 10:20:45;;;;;;;5.45;1.00;;;11.00;99.90;;;;;;5051982;28;20100;-44
2022/09/27 10:23:23;;;;;;;1.30;1.20;;;11.00;99.90;;;;;;5057480;28;20021;-44
2022/09/27 10:25:54;;;;;;;1.70;1.40;;;11.10;99.90;;;;;;5058106;28;20028;-46
2022/09/27 10:28:36;;;;;;;1.83;1.67;;;11.10;99.90;;;;;;5061179;28;20029;-44
2022/09/27 10:31:07;;;;;;;2.08;1.30;;;11.00;99.90;;;;;;5060601;28;20472;-45
2022/09/27 10:33:36;;;;;;;2.60;1.30;;;10.90;99.90;;;;;;5063203;28;20124;-45
2022/09/27 10:36:02;;;;;;;2.67;1.52;;;10.90;99.90;;;;;;5062873;28;20411;-48
2022/09/27 10:38:36;;;;;;;1.30;1.20;;;10.90;99.90;;;;;;5064930;28;20070;-44
2022/09/27 10:41:22;;;;;;;1.70;1.60;;;10.80;99.90;;;;;;5063289;28;20479;-45
2022/09/27 10:43:48;;;;;;;1.40;1.30;;;10.80;99.90;;;;;;5065162;28;20028;-46
2022/09/27 10:46:33;;;;;;;1.48;1.20;;;10.90;99.90;;;;;;5062075;28;20020;-44
2022/09/27 10:49:20;;;;;;;1.58;0.98;;;10.70;99.90;;;;;;5063120;28;20025;-44
2022/09/27 10:51:50;;;;;;;1.90;1.27;;;10.80;99.90;;;;;;5058340;28;20032;-48
2022/09/27 10:54:49;;;;;;;1.05;0.80;;;10.70;99.90;;;;;;5050198;28;20048;-43
2022/09/27 10:57:20;;;;;;;0.80;0.80;;;10.70;99.90;;;;;;5064417;28;20038;-43
2022/09/27 10:59:55;;;;;;;0.88;0.80;;;10.70;99.90;;;;;;5064651;28;20043;-43
2022/09/27 11:02:27;;;;;;;0.70;0.60;;;10.70;99.90;;;;;;5037777;28;20032;-45
2022/09/27 11:05:28;;;;;;;2.08;0.77;;;10.70;99.90;;;;;;5063823;28;20090;-43
2022/09/27 11:08:18;;;;;;;0.98;0.88;;;10.80;99.90;;;;;;5064571;28;20024;-44
2022/09/27 11:10:58;;;;;;;1.17;0.70;;;10.70;99.90;;;;;;5060693;28;20105;-43
2022/09/27 11:13:24;;;;;;;1.17;0.70;;;10.70;99.90;;;;;;5054865;28;20025;-43
2022/09/27 11:16:23;;;;;;;1.38;0.47;;;10.70;99.90;;;;;;5061063;28;20356;-44
2022/09/27 11:19:12;;;;;;;0.63;0.60;;;10.80;99.90;;;;;;5061861;28;20120;-44
2022/09/27 11:22:00;;;;;;;1.52;0.95;;;10.80;99.90;;;;;;5046130;28;20103;-43
2022/09/27 11:25:02;;;;;;;0.70;0.70;;;10.90;99.90;;;;;;5057829;28;20050;-43
2022/09/27 11:27:57;;;;;;;0.77;0.70;;;11.00;99.90;;;;;;5058162;28;20534;-43
2022/09/27 11:30:23;;;;;;;1.42;0.73;;;11.10;99.90;;;;;;5054169;28;20021;-43
2022/09/27 11:33:04;;;;;;;0.85;0.85;;;11.20;99.90;;;;;;5043104;28;20522;-43
2022/09/27 11:36:12;;;;;;;0.77;0.77;;;11.20;99.90;;;;;;5064067;28;20035;-43
2022/09/27 11:38:48;;;;;;;0.90;0.90;;;11.20;99.90;;;;;;5057670;28;20486;-44
2022/09/27 11:41:52;;;;;;;0.75;0.75;;;11.10;99.90;;;;;;5061054;28;20017;-44
2022/09/27 11:45:00;;;;;;;5.43;0.85;;;11.20;99.90;;;;;;5055993;28;20020;-43
2022/09/27 11:47:28;;;;;;;;;;;11.30;99.90;;;;;;4967679;28;20037;-43
2022/09/27 11:50:25;;;;;;;2.55;1.15;;;11.40;99.90;;;;;;5058361;28;20397;-44
2022/09/27 11:53:10;;;;;;;0.85;0.80;;;11.50;99.90;;;;;;5045283;28;20025;-43
2022/09/27 11:55:42;;;;;;;1.65;0.93;;;11.60;99.90;;;;;;5060838;28;20032;-47
2022/09/27 11:58:46;;;;;;;1.10;0.93;;;11.70;99.90;;;;;;5061146;28;20028;-48
2022/09/27 12:01:23;;;;;;;1.33;0.88;;;11.80;99.90;;;;;;5007245;28;20036;-44
2022/09/27 12:04:10;;;;;;;0.90;0.90;;;11.90;99.90;;;;;;5061336;28;20100;-43
2022/09/27 12:06:41;;;;;;;1.40;1.20;;;11.90;99.90;;;;;;5063418;28;20035;-43
2022/09/27 12:09:14;;;;;;;1.15;1.00;;;11.90;99.90;;;;;;5061931;28;20532;-44
2022/09/27 12:11:43;;;;;;;0.85;0.85;;;11.90;99.90;;;;;;5063282;28;20032;-43
2022/09/27 12:14:35;;;;;;;3.08;2.78;;;11.90;99.90;;;;;;5062644;28;20017;-44
2022/09/27 12:17:05;;;;;;;4.40;3.55;;;11.90;99.90;;;;;;5061721;28;20024;-43
2022/09/27 12:19:38;;;;;;;2.40;1.73;;;11.90;99.90;;;;;;5063229;28;20447;-44
2022/09/27 12:22:09;;;;;;;1.23;1.00;;;11.90;99.90;;;;;;5060616;28;20421;-44
2022/09/27 12:24:37;;;;;;;1.55;0.90;;;11.90;99.90;;;;;;5064685;28;20678;-43
2022/09/27 12:27:09;;;;;;;0.82;0.82;;;11.90;99.90;;;;;;5061012;28;20475;-49
2022/09/27 12:29:38;;;;;;;1.20;1.10;;;11.90;99.90;;;;;;5064908;28;20032;-47
2022/09/27 12:32:16;;;;;;;2.65;1.83;;;11.90;99.90;;;;;;5061086;28;20020;-45
2022/09/27 12:35:10;;;;;;;1.50;1.23;;;11.90;99.90;;;;;;5055532;28;20390;-48
2022/09/27 12:37:50;;;;;;;3.35;1.50;;;11.90;99.90;;;;;;5056267;28;20017;-48
2022/09/27 12:40:28;;;;;;;3.50;2.50;;;11.90;99.90;;;;;;5048089;28;20095;-46
2022/09/27 12:43:20;;;;;;;1.33;1.23;;;12.00;99.90;;;;;;5061790;28;20108;-45
2022/09/27 12:46:01;;;;;;;2.35;1.50;;;12.00;99.90;;;;;;5062921;28;20028;-44
2022/09/27 12:48:45;;;;;;;2.13;1.75;;;12.00;99.90;;;;;;5055000;28;20502;-47
2022/09/27 12:51:21;;;;;;;3.00;2.17;;;12.00;99.90;;;;;;5059385;28;20033;-46
2022/09/27 12:53:57;;;;;;;;;;;12.00;99.90;;;;;;5056034;28;20052;-49
2022/09/27 12:56:48;;;;;;;2.10;1.50;;;12.00;99.90;;;;;;5051884;28;19905;-45
2022/09/27 12:59:42;;;;;;;1.60;0.88;;;11.90;99.90;;;;;;5048915;28;20255;-47
2022/09/27 13:02:26;;;;;;;2.53;1.20;;;11.90;99.90;;;;;;5059813;28;20204;-45
2022/09/27 13:05:10;;;;;;;1.00;0.90;;;11.90;99.90;;;;;;5061735;28;20123;-50
2022/09/27 13:07:53;;;;;;;1.15;0.93;;;11.90;99.90;;;;;;5058335;28;20550;-45
2022/09/27 13:10:38;;;;;;;1.88;0.95;;;11.90;99.90;;;;;;5055255;28;20021;-45
2022/09/27 13:13:07;;;;;;;0.77;0.77;;;12.00;99.90;;;;;;5066183;28;20028;-46
2022/09/27 13:15:35;;;;;;;2.05;0.77;;;12.00;99.90;;;;;;5058515;28;20036;-46
2022/09/27 13:18:04;;;;;;;0.73;0.70;;;12.00;99.90;;;;;;5060598;28;20017;-46
2022/09/27 13:20:35;;;;;;;3.05;1.65;;;12.10;99.90;;;;;;5062386;28;20052;-45
2022/09/27 13:23:04;;;;;;;1.52;0.68;;;12.10;99.90;;;;;;5042068;28;20024;-48
2022/09/27 13:25:59;;;;;;;2.30;0.80;;;12.10;99.90;;;;;;5045270;28;20036;-47